Time;durP1;ratioP1;P1;durP2;ratioP2;P2;SDS_P1;SDS_P2;PMS_P1;PMS_P2;Temp;Humidity;BMP_temperature;BMP_pressure;BME280_temperature;BME280_humidity;BME280_pressure;Samples;Min_cycle;Max_cycle;Signal;HPM_P1;HPM_P2
2023/12/08 00:00:27;;;;;;;1313.45;999.90;;;27.30;99.90;;;;;;5074964;28;20029;-65
2023/12/08 00:02:54;;;;;;;1342.05;999.90;;;27.30;99.90;;;;;;5074775;28;20075;-65
2023/12/08 00:05:20;;;;;;;1334.82;999.90;;;27.40;99.90;;;;;;5074575;28;20387;-65
2023/12/08 00:07:47;;;;;;;1308.45;999.90;;;27.40;99.90;;;;;;5074481;28;20025;-65
2023/12/08 00:10:13;;;;;;;1332.60;999.90;;;27.40;99.90;;;;;;5074688;28;20017;-65
2023/12/08 00:12:40;;;;;;;1333.15;999.90;;;27.40;99.90;;;;;;5058373;28;20029;-64
2023/12/08 00:15:12;;;;;;;1334.45;999.90;;;27.40;99.90;;;;;;5054617;28;20025;-65
2023/12/08 00:17:38;;;;;;;1324.72;999.90;;;27.50;99.90;;;;;;5054792;28;20021;-64
2023/12/08 00:20:06;;;;;;;1309.55;999.90;;;27.50;99.90;;;;;;5054860;28;20206;-65
2023/12/08 00:22:33;;;;;;;1337.15;999.90;;;27.50;99.90;;;;;;5060452;28;20068;-65
2023/12/08 00:24:59;;;;;;;1350.82;999.90;;;27.50;99.90;;;;;;5074275;28;20056;-65
2023/12/08 00:27:26;;;;;;;1319.72;999.90;;;27.60;99.90;;;;;;5074338;28;20052;-66
2023/12/08 00:29:52;;;;;;;1351.85;999.90;;;27.60;99.90;;;;;;5074206;28;20082;-65
2023/12/08 00:32:19;;;;;;;1311.95;999.90;;;27.60;99.90;;;;;;5074531;28;20528;-65
2023/12/08 00:34:46;;;;;;;1335.82;999.90;;;27.60;99.90;;;;;;5059349;28;20297;-65
2023/12/08 00:37:13;;;;;;;1341.10;999.90;;;27.60;99.90;;;;;;5051628;28;20416;-65
2023/12/08 00:39:40;;;;;;;1318.97;999.90;;;27.60;99.90;;;;;;5043642;28;20029;-65
2023/12/08 00:42:07;;;;;;;1320.75;999.90;;;27.60;99.90;;;;;;5044751;28;20048;-65
2023/12/08 00:44:33;;;;;;;1328.40;999.90;;;27.70;99.90;;;;;;5045403;28;20025;-65
2023/12/08 00:47:00;;;;;;;1285.78;999.90;;;27.80;99.90;;;;;;5045565;28;20100;-65
2023/12/08 00:49:26;;;;;;;1320.90;999.90;;;27.80;99.90;;;;;;5043120;28;20494;-65
2023/12/08 00:51:53;;;;;;;1344.47;999.90;;;27.80;99.90;;;;;;5045036;28;20025;-65
2023/12/08 00:54:19;;;;;;;1331.00;999.90;;;27.80;99.90;;;;;;5043301;28;20484;-65
2023/12/08 00:56:46;;;;;;;1335.65;999.90;;;27.80;99.90;;;;;;5044458;28;20037;-65
2023/12/08 00:59:12;;;;;;;1329.75;999.90;;;27.90;99.90;;;;;;5044654;28;20034;-64
2023/12/08 01:01:39;;;;;;;1328.47;999.90;;;28.00;99.90;;;;;;5043080;28;20026;-65
2023/12/08 01:04:05;;;;;;;1336.28;999.90;;;28.00;99.90;;;;;;5044797;28;20110;-65
2023/12/08 01:06:32;;;;;;;1333.03;999.90;;;28.10;99.90;;;;;;5042654;28;20057;-65
2023/12/08 01:08:58;;;;;;;1333.72;999.90;;;28.10;99.90;;;;;;5045142;28;20312;-65
2023/12/08 01:11:25;;;;;;;1339.22;999.90;;;28.10;99.90;;;;;;5043539;28;20444;-65
2023/12/08 01:13:51;;;;;;;1337.53;999.90;;;28.10;99.90;;;;;;5043333;28;20025;-65
2023/12/08 01:16:18;;;;;;;1302.45;999.90;;;28.10;99.90;;;;;;5044104;28;20028;-65
2023/12/08 01:18:45;;;;;;;1337.20;999.90;;;28.10;99.90;;;;;;5042991;28;20029;-65
2023/12/08 01:21:12;;;;;;;1317.78;999.90;;;28.10;99.90;;;;;;5042896;28;20055;-65
2023/12/08 01:23:38;;;;;;;1339.13;999.90;;;28.20;99.90;;;;;;5055780;28;20052;-65
2023/12/08 01:26:08;;;;;;;1336.40;999.90;;;28.30;99.90;;;;;;5064036;28;20286;-65
2023/12/08 01:28:35;;;;;;;1338.60;999.90;;;28.40;99.90;;;;;;5064439;28;20056;-65
2023/12/08 01:31:03;;;;;;;1321.88;999.90;;;28.40;99.90;;;;;;5073635;28;20071;-64
2023/12/08 01:33:29;;;;;;;1344.63;999.90;;;28.50;99.90;;;;;;5073506;28;20394;-65
2023/12/08 01:35:56;;;;;;;1331.35;999.90;;;28.50;99.90;;;;;;5073539;28;20033;-65
2023/12/08 01:38:22;;;;;;;1357.95;999.90;;;28.60;99.90;;;;;;5073281;28;20052;-64
2023/12/08 01:40:49;;;;;;;1377.30;999.90;;;28.70;99.90;;;;;;5073506;28;20024;-64
2023/12/08 01:43:15;;;;;;;1324.28;999.90;;;28.80;99.90;;;;;;5072635;28;20052;-64
2023/12/08 01:45:42;;;;;;;1326.63;999.90;;;28.80;99.90;;;;;;5061684;28;20472;-65
2023/12/08 01:48:09;;;;;;;1345.05;999.90;;;28.90;99.90;;;;;;5061878;28;20103;-63
2023/12/08 01:50:36;;;;;;;1359.63;999.90;;;28.90;99.90;;;;;;5063145;28;20024;-61
2023/12/08 01:53:03;;;;;;;1345.03;999.90;;;29.00;99.90;;;;;;5062535;28;20032;-64
2023/12/08 01:55:31;;;;;;;1333.50;999.90;;;29.00;99.90;;;;;;5065472;28;20108;-64
2023/12/08 01:57:58;;;;;;;1332.93;999.90;;;29.10;99.90;;;;;;5061642;28;20031;-63
2023/12/08 02:00:24;;;;;;;1306.32;999.90;;;29.20;99.90;;;;;;5066808;28;20013;-64
2023/12/08 02:02:51;;;;;;;1328.75;999.90;;;29.30;99.90;;;;;;5065142;28;20433;-64
2023/12/08 02:05:20;;;;;;;1331.65;999.90;;;29.40;99.90;;;;;;5062637;28;20036;-64
2023/12/08 02:07:47;;;;;;;1308.07;999.90;;;29.50;99.90;;;;;;5057579;28;20071;-63
2023/12/08 02:10:13;;;;;;;1339.60;999.90;;;29.50;99.90;;;;;;5057536;28;20471;-64
2023/12/08 02:12:40;;;;;;;1324.07;999.90;;;29.50;99.90;;;;;;5057506;28;20028;-64
2023/12/08 02:15:07;;;;;;;1334.40;999.90;;;29.50;99.90;;;;;;5057497;28;20013;-63
2023/12/08 02:17:38;;;;;;;1340.47;999.90;;;29.50;99.90;;;;;;5057437;28;20029;-63
2023/12/08 02:20:10;;;;;;;1333.45;999.90;;;29.60;99.90;;;;;;5057120;28;20021;-64
2023/12/08 02:22:36;;;;;;;1319.68;999.90;;;29.70;99.90;;;;;;5056957;28;20041;-64
2023/12/08 02:25:03;;;;;;;1315.53;999.90;;;29.80;99.90;;;;;;5057083;28;20041;-63
2023/12/08 02:27:30;;;;;;;1332.10;999.90;;;29.80;99.90;;;;;;5057081;28;20031;-64
2023/12/08 02:29:57;;;;;;;1316.10;999.90;;;29.90;99.90;;;;;;5057112;28;20021;-65
2023/12/08 02:32:29;;;;;;;1334.07;999.90;;;30.00;99.90;;;;;;5057459;28;20025;-65
2023/12/08 02:34:57;;;;;;;;;;;30.00;99.90;;;;;;5057993;28;20029;-64
2023/12/08 02:37:26;;;;;;;1334.10;999.90;;;30.10;99.90;;;;;;5057167;28;19915;-65
2023/12/08 02:39:54;;;;;;;1307.63;999.90;;;30.20;99.90;;;;;;5057121;28;20112;-65
2023/12/08 02:42:20;;;;;;;1323.45;999.90;;;30.20;99.90;;;;;;5054847;28;20099;-65
2023/12/08 02:44:47;;;;;;;1313.40;999.90;;;30.20;99.90;;;;;;5047039;28;20017;-65
2023/12/08 02:47:13;;;;;;;1347.18;999.90;;;30.20;99.90;;;;;;5051108;28;20067;-65
2023/12/08 02:49:40;;;;;;;1342.85;999.90;;;30.30;99.90;;;;;;5051436;28;20013;-65
2023/12/08 02:52:07;;;;;;;1346.95;999.90;;;30.50;99.90;;;;;;5036858;28;20028;-65
2023/12/08 02:54:33;;;;;;;1347.90;999.90;;;30.50;99.90;;;;;;5036897;28;20035;-66
2023/12/08 02:57:00;;;;;;;1350.85;999.90;;;30.50;99.90;;;;;;5036435;28;20123;-66
2023/12/08 02:59:26;;;;;;;1344.40;999.90;;;30.50;99.90;;;;;;5036438;28;20040;-66
2023/12/08 03:01:53;;;;;;;1362.30;999.90;;;30.50;99.90;;;;;;5054547;28;20071;-65
2023/12/08 03:04:19;;;;;;;1350.47;999.90;;;30.60;99.90;;;;;;5055722;28;20112;-66
2023/12/08 03:06:46;;;;;;;1343.30;999.90;;;30.60;99.90;;;;;;5055666;28;20039;-67
2023/12/08 03:09:12;;;;;;;1347.50;999.90;;;30.60;99.90;;;;;;5056782;28;20432;-67
2023/12/08 03:11:39;;;;;;;1383.30;999.90;;;30.60;99.90;;;;;;5056436;28;20029;-66
2023/12/08 03:14:05;;;;;;;1337.63;999.90;;;30.70;99.90;;;;;;5056369;28;20037;-67
2023/12/08 03:16:32;;;;;;;1357.05;999.90;;;30.80;99.90;;;;;;5055804;28;20064;-65
2023/12/08 03:18:58;;;;;;;1360.47;999.90;;;30.90;99.90;;;;;;5056357;28;20037;-65
2023/12/08 03:21:26;;;;;;;1367.43;999.90;;;30.90;99.90;;;;;;5055530;28;20024;-64
2023/12/08 03:23:53;;;;;;;1369.13;999.90;;;30.80;99.90;;;;;;5055397;28;20053;-66
2023/12/08 03:26:20;;;;;;;1357.20;999.90;;;30.90;99.90;;;;;;5054580;28;20483;-65
2023/12/08 03:28:47;;;;;;;1340.35;999.90;;;31.00;99.90;;;;;;5055971;28;20032;-66
2023/12/08 03:31:23;;;;;;;1351.40;999.90;;;31.00;99.90;;;;;;5055750;28;20033;-65
2023/12/08 03:33:51;;;;;;;1345.13;999.90;;;31.10;99.90;;;;;;5069436;28;20543;-64
2023/12/08 03:36:17;;;;;;;1351.38;999.90;;;31.20;99.90;;;;;;5075806;28;20501;-64
2023/12/08 03:38:44;;;;;;;1342.20;999.90;;;31.30;99.90;;;;;;5076075;28;20049;-64
2023/12/08 03:41:11;;;;;;;1351.15;999.90;;;31.20;99.90;;;;;;5075971;28;20078;-64
2023/12/08 03:43:38;;;;;;;1354.82;999.90;;;31.30;99.90;;;;;;5075884;28;20105;-65
2023/12/08 03:46:07;;;;;;;1336.10;999.90;;;31.40;99.90;;;;;;5092889;22;20398;-62
2023/12/08 03:48:36;;;;;;;1346.20;999.90;;;31.40;99.90;;;;;;5055732;28;20120;-62
2023/12/08 03:51:04;;;;;;;1393.43;999.90;;;31.40;99.90;;;;;;5055433;28;20398;-63
2023/12/08 03:53:32;;;;;;;1368.72;999.90;;;31.30;99.90;;;;;;5056146;28;20033;-61
2023/12/08 03:55:58;;;;;;;1362.20;999.90;;;31.30;99.90;;;;;;5055387;28;20074;-62
2023/12/08 03:58:26;;;;;;;1372.38;999.90;;;31.30;99.90;;;;;;5055455;28;20024;-63
2023/12/08 04:00:53;;;;;;;1374.15;999.90;;;31.40;99.90;;;;;;5055335;28;20291;-61
2023/12/08 04:03:20;;;;;;;1347.32;999.90;;;31.30;99.90;;;;;;5055154;28;20032;-62
2023/12/08 04:05:47;;;;;;;1347.65;999.90;;;31.30;99.90;;;;;;5054829;28;20025;-64
2023/12/08 04:08:13;;;;;;;1355.63;999.90;;;31.40;99.90;;;;;;5054756;28;20540;-61
2023/12/08 04:10:40;;;;;;;1327.75;999.90;;;31.50;99.90;;;;;;5054114;28;20112;-61
2023/12/08 04:13:06;;;;;;;1347.90;999.90;;;31.60;99.90;;;;;;5040083;28;20033;-62
2023/12/08 04:15:33;;;;;;;1333.00;999.90;;;31.70;99.90;;;;;;5043244;28;20029;-63
2023/12/08 04:18:00;;;;;;;1347.93;999.90;;;31.80;99.90;;;;;;5015685;28;20030;-62
2023/12/08 04:20:26;;;;;;;1357.32;999.90;;;31.90;99.90;;;;;;5014255;28;20476;-63
2023/12/08 04:22:53;;;;;;;1345.15;999.90;;;;;;;;;;5014819;28;20041;-62
2023/12/08 04:25:19;;;;;;;1347.65;999.90;;;;;;;;;;5015137;28;20060;-62
2023/12/08 04:27:46;;;;;;;1340.70;999.90;;;;;;;;;;5015537;28;20380;-62
2023/12/08 04:30:13;;;;;;;1342.63;999.90;;;;;;;;;;5015198;28;20080;-61
2023/12/08 04:32:39;;;;;;;1366.00;999.90;;;;;;;;;;5015112;28;20022;-60
2023/12/08 04:35:06;;;;;;;1359.72;999.90;;;;;;;;;;5015173;28;20037;-62
2023/12/08 04:37:33;;;;;;;1366.93;999.90;;;;;;;;;;5015544;28;20566;-61
2023/12/08 04:40:00;;;;;;;1362.10;999.90;;;;;;;;;;5039585;28;20025;-61
2023/12/08 04:42:26;;;;;;;1362.32;999.90;;;;;;;;;;5042605;28;20411;-61
2023/12/08 04:44:53;;;;;;;1373.50;999.90;;;;;;;;;;5043632;28;20384;-63
2023/12/08 04:47:19;;;;;;;1390.35;999.90;;;;;;;;;;5042384;28;20056;-61
2023/12/08 04:49:46;;;;;;;1346.85;999.90;;;;;;;;;;5040230;28;20014;-62
2023/12/08 04:52:13;;;;;;;1316.25;999.90;;;;;;;;;;5043696;28;20438;-63
2023/12/08 04:54:39;;;;;;;1320.88;999.90;;;;;;;;;;5044427;28;21339;-62
2023/12/08 04:57:06;;;;;;;1328.03;999.90;;;;;;;;;;5039561;28;20492;-62
2023/12/08 04:59:33;;;;;;;1323.20;999.90;;;;;;;;;;5044164;28;20025;-62
2023/12/08 05:01:59;;;;;;;1329.50;999.90;;;;;;;;;;5043999;28;20377;-63
2023/12/08 05:04:26;;;;;;;1320.18;999.90;;;;;;;;;;5039375;28;20036;-62
2023/12/08 05:06:53;;;;;;;1329.03;999.90;;;;;;;;;;5039884;28;20491;-63
2023/12/08 05:09:19;;;;;;;1328.55;999.90;;;;;;;;;;5047579;28;20383;-62
2023/12/08 05:11:46;;;;;;;1363.78;999.90;;;33.00;99.90;;;;;;5041723;28;20108;-62
2023/12/08 05:14:13;;;;;;;1332.40;999.90;;;33.00;99.90;;;;;;5043874;28;20037;-62
2023/12/08 05:16:40;;;;;;;1309.32;999.90;;;33.20;99.90;;;;;;5044190;28;20457;-63
2023/12/08 05:19:06;;;;;;;1308.82;999.90;;;33.20;99.90;;;;;;5042210;28;20025;-63
2023/12/08 05:21:33;;;;;;;1317.25;999.90;;;33.10;99.90;;;;;;5043826;28;20039;-63
2023/12/08 05:23:59;;;;;;;1310.28;999.90;;;33.00;99.90;;;;;;5043438;28;20025;-63
2023/12/08 05:26:26;;;;;;;1316.93;999.90;;;32.90;99.90;;;;;;5042385;28;20026;-63
2023/12/08 05:28:52;;;;;;;1313.07;999.90;;;32.90;99.90;;;;;;5039005;28;20144;-63
2023/12/08 05:31:19;;;;;;;1320.78;999.90;;;32.90;99.90;;;;;;5043099;28;20072;-63
2023/12/08 05:33:45;;;;;;;1315.85;999.90;;;32.90;99.90;;;;;;5041451;28;20028;-63
2023/12/08 05:36:12;;;;;;;1324.03;999.90;;;32.80;99.90;;;;;;5033250;28;20036;-63
2023/12/08 05:38:38;;;;;;;1318.22;999.90;;;32.90;99.90;;;;;;5035828;28;20035;-63
2023/12/08 05:41:05;;;;;;;1305.53;999.90;;;32.90;99.90;;;;;;5043062;28;20074;-62
2023/12/08 05:43:32;;;;;;;1308.28;999.90;;;33.00;99.90;;;;;;5051042;28;20112;-61
2023/12/08 05:45:58;;;;;;;1340.80;999.90;;;33.20;99.90;;;;;;5054169;28;20079;-62
2023/12/08 05:48:25;;;;;;;1314.53;999.90;;;33.30;99.90;;;;;;5054210;28;20021;-63
2023/12/08 05:50:51;;;;;;;1331.00;999.90;;;33.30;99.90;;;;;;5053325;28;20028;-63
2023/12/08 05:53:18;;;;;;;1311.55;999.90;;;33.40;99.90;;;;;;5052916;28;20033;-64
2023/12/08 05:55:44;;;;;;;1321.97;999.90;;;33.40;99.90;;;;;;5053660;28;20136;-63
2023/12/08 05:58:11;;;;;;;1314.40;999.90;;;33.50;99.90;;;;;;5053049;28;20029;-63
2023/12/08 06:00:37;;;;;;;1321.82;999.90;;;33.50;99.90;;;;;;5053107;28;20029;-63
2023/12/08 06:03:04;;;;;;;1300.93;999.90;;;33.60;99.90;;;;;;5053496;28;20167;-63
2023/12/08 06:05:30;;;;;;;1318.40;999.90;;;33.60;99.90;;;;;;5053073;28;20017;-63
2023/12/08 06:07:57;;;;;;;1329.35;999.90;;;33.50;99.90;;;;;;5052940;28;20104;-62
2023/12/08 06:10:24;;;;;;;1320.15;999.90;;;33.50;99.90;;;;;;5052981;28;20021;-64
2023/12/08 06:12:50;;;;;;;1318.80;999.90;;;33.50;99.90;;;;;;5053120;28;20035;-64
2023/12/08 06:15:17;;;;;;;1300.95;999.90;;;33.60;99.90;;;;;;5052812;28;20075;-64
2023/12/08 06:17:43;;;;;;;1311.53;999.90;;;33.70;99.90;;;;;;5053354;28;20024;-62
2023/12/08 06:20:11;;;;;;;1315.65;999.90;;;33.80;99.90;;;;;;5053467;28;20456;-62
2023/12/08 06:22:38;;;;;;;1304.70;999.90;;;33.80;99.90;;;;;;5053509;28;20108;-64
2023/12/08 06:25:05;;;;;;;1335.50;999.90;;;33.80;99.90;;;;;;5052901;28;20083;-64
2023/12/08 06:27:32;;;;;;;1317.03;999.90;;;33.80;99.90;;;;;;5041485;28;20101;-63
2023/12/08 06:29:58;;;;;;;1311.30;999.90;;;33.80;99.90;;;;;;5022370;28;20465;-65
2023/12/08 06:32:28;;;;;;;1316.05;999.90;;;33.90;99.90;;;;;;5018574;28;20049;-64
2023/12/08 06:34:55;;;;;;;1303.15;999.90;;;34.00;99.90;;;;;;5032552;28;20061;-63
2023/12/08 06:37:21;;;;;;;1316.70;999.90;;;34.10;99.90;;;;;;5033374;28;20021;-63
2023/12/08 06:39:48;;;;;;;1317.43;999.90;;;34.10;99.90;;;;;;5035610;28;20068;-63
2023/12/08 06:42:14;;;;;;;1317.00;999.90;;;34.00;99.90;;;;;;5031192;28;20033;-63
2023/12/08 06:44:41;;;;;;;1317.55;999.90;;;34.10;99.90;;;;;;5030874;28;20305;-64
2023/12/08 06:47:08;;;;;;;1316.68;999.90;;;34.10;99.90;;;;;;5034900;28;20179;-63
2023/12/08 06:49:34;;;;;;;1327.35;999.90;;;34.10;99.90;;;;;;5037042;28;20132;-63
2023/12/08 06:52:01;;;;;;;1330.85;999.90;;;34.20;99.90;;;;;;5019158;28;20156;-62
2023/12/08 06:54:27;;;;;;;1323.75;999.90;;;34.20;99.90;;;;;;5017394;28;20030;-62
2023/12/08 06:56:54;;;;;;;1337.03;999.90;;;34.40;99.90;;;;;;5017217;28;20017;-62
2023/12/08 06:59:20;;;;;;;1335.45;999.90;;;34.50;99.90;;;;;;5017378;28;20088;-62
2023/12/08 07:01:47;;;;;;;1337.47;999.90;;;34.50;99.90;;;;;;5016817;28;20029;-61
2023/12/08 07:04:14;;;;;;;1330.13;999.90;;;34.40;99.90;;;;;;5027809;28;20030;-63
2023/12/08 07:06:40;;;;;;;1333.95;999.90;;;34.30;99.90;;;;;;5036797;28;20124;-63
2023/12/08 07:09:09;;;;;;;1357.47;999.90;;;34.40;99.90;;;;;;5016840;28;20102;-63
2023/12/08 07:11:35;;;;;;;1339.78;999.90;;;34.30;99.90;;;;;;5033424;28;20030;-63
2023/12/08 07:14:02;;;;;;;1346.57;999.90;;;34.40;99.90;;;;;;5035237;28;20060;-64
2023/12/08 07:16:28;;;;;;;1344.28;999.90;;;34.40;99.90;;;;;;5023608;28;20484;-62
2023/12/08 07:18:55;;;;;;;1370.45;999.90;;;34.40;99.90;;;;;;5020360;28;20045;-61
2023/12/08 07:21:21;;;;;;;1369.85;999.90;;;34.50;99.90;;;;;;5020167;28;20059;-61
2023/12/08 07:23:48;;;;;;;1354.28;999.90;;;34.50;99.90;;;;;;5023721;28;20026;-63
2023/12/08 07:26:15;;;;;;;1357.25;999.90;;;34.50;99.90;;;;;;5025504;28;20026;-63
2023/12/08 07:28:42;;;;;;;1339.10;999.90;;;34.50;99.90;;;;;;5018811;28;20057;-62
2023/12/08 07:31:09;;;;;;;1340.95;999.90;;;34.70;99.90;;;;;;5030536;28;20407;-63
2023/12/08 07:33:35;;;;;;;1333.82;999.90;;;34.70;99.90;;;;;;5029636;28;20040;-62
2023/12/08 07:36:03;;;;;;;1333.25;999.90;;;34.60;99.90;;;;;;5016275;28;20030;-62
2023/12/08 07:38:29;;;;;;;1336.63;999.90;;;34.60;99.90;;;;;;5015663;28;20041;-63
2023/12/08 07:40:56;;;;;;;1347.38;999.90;;;34.70;99.90;;;;;;5031528;28;20435;-62
2023/12/08 07:43:22;;;;;;;1345.40;999.90;;;34.70;99.90;;;;;;5037869;28;20082;-63
2023/12/08 07:45:51;;;;;;;1349.53;999.90;;;34.70;99.90;;;;;;5045868;28;20068;-63
2023/12/08 07:48:17;;;;;;;1356.65;999.90;;;34.70;99.90;;;;;;5045452;28;20051;-63
2023/12/08 07:50:44;;;;;;;1343.32;999.90;;;34.70;99.90;;;;;;5039520;28;20026;-64
2023/12/08 07:53:11;;;;;;;1338.75;999.90;;;34.70;99.90;;;;;;5030439;28;20126;-62
2023/12/08 07:55:37;;;;;;;1351.80;999.90;;;34.60;99.90;;;;;;5047138;28;20025;-63
2023/12/08 07:58:04;;;;;;;1347.95;999.90;;;34.70;99.90;;;;;;5048079;28;20052;-63
2023/12/08 08:00:31;;;;;;;1347.38;999.90;;;34.70;99.90;;;;;;5051898;28;20017;-65
2023/12/08 08:02:58;;;;;;;1335.45;999.90;;;34.80;99.90;;;;;;5049855;28;20103;-64
2023/12/08 08:05:25;;;;;;;1330.95;999.90;;;34.80;99.90;;;;;;5044867;28;20025;-63
2023/12/08 08:07:51;;;;;;;1340.70;999.90;;;34.80;99.90;;;;;;5045303;28;20099;-63
2023/12/08 08:10:18;;;;;;;1347.82;999.90;;;34.80;99.90;;;;;;5046033;28;20025;-64
2023/12/08 08:12:44;;;;;;;1379.45;999.90;;;34.70;99.90;;;;;;5043372;28;20021;-63
2023/12/08 08:15:11;;;;;;;1382.10;999.90;;;34.60;99.90;;;;;;5044714;28;20440;-62
2023/12/08 08:17:37;;;;;;;1374.30;999.90;;;34.70;99.90;;;;;;5045239;28;20021;-62
2023/12/08 08:20:05;;;;;;;1373.43;999.90;;;34.70;99.90;;;;;;5040628;28;20033;-63
2023/12/08 08:22:33;;;;;;;1386.35;999.90;;;34.80;99.90;;;;;;5041347;28;20018;-63
2023/12/08 08:25:01;;;;;;;1381.68;999.90;;;34.80;99.90;;;;;;5044219;28;20038;-62
2023/12/08 08:27:28;;;;;;;1388.88;999.90;;;34.80;99.90;;;;;;5044748;28;20468;-63
2023/12/08 08:29:55;;;;;;;1392.88;999.90;;;34.80;99.90;;;;;;5044222;28;20465;-64
2023/12/08 08:32:21;;;;;;;1375.97;999.90;;;34.90;99.90;;;;;;5043124;28;20029;-65
2023/12/08 08:34:48;;;;;;;1395.55;999.90;;;34.80;99.90;;;;;;5044446;28;20464;-64
2023/12/08 08:37:14;;;;;;;1392.10;999.90;;;34.80;99.90;;;;;;5044057;28;20025;-68
2023/12/08 08:39:41;;;;;;;1392.60;999.90;;;34.80;99.90;;;;;;5042534;28;20026;-66
2023/12/08 08:42:08;;;;;;;1378.45;999.90;;;34.80;99.90;;;;;;5044229;28;20048;-65
2023/12/08 08:44:36;;;;;;;1373.63;999.90;;;34.70;99.90;;;;;;5043447;28;20080;-66
2023/12/08 08:47:03;;;;;;;1380.30;999.90;;;34.70;99.90;;;;;;5036514;28;20056;-66
2023/12/08 08:49:29;;;;;;;1389.97;999.90;;;34.70;99.90;;;;;;5033972;28;20472;-67
2023/12/08 08:51:56;;;;;;;1385.28;999.90;;;34.60;99.90;;;;;;5033903;28;20018;-67
2023/12/08 08:54:23;;;;;;;1386.82;999.90;;;34.60;99.90;;;;;;5033817;28;20110;-68
2023/12/08 08:56:49;;;;;;;1390.68;999.90;;;34.50;99.90;;;;;;5033683;28;20392;-67
2023/12/08 08:59:16;;;;;;;1378.80;999.90;;;34.60;99.90;;;;;;5033742;28;20595;-61
2023/12/08 09:01:42;;;;;;;1393.20;999.90;;;34.50;99.90;;;;;;5033551;28;20187;-62
2023/12/08 09:04:09;;;;;;;1375.95;999.90;;;34.60;99.90;;;;;;5033469;28;20025;-62
2023/12/08 09:06:35;;;;;;;1393.85;999.90;;;34.60;99.90;;;;;;5033152;28;20403;-61
2023/12/08 09:09:04;;;;;;;1393.57;999.90;;;34.60;99.90;;;;;;5015139;28;20369;-60
2023/12/08 09:11:30;;;;;;;1386.13;999.90;;;34.50;99.90;;;;;;5034395;28;20384;-60
2023/12/08 09:13:57;;;;;;;1394.45;999.90;;;34.50;99.90;;;;;;5034590;28;20057;-61
2023/12/08 09:16:24;;;;;;;1386.00;999.90;;;34.40;99.90;;;;;;5033863;28;20068;-63
2023/12/08 09:18:51;;;;;;;1385.45;999.90;;;34.40;99.90;;;;;;5034086;28;20033;-62
2023/12/08 09:21:17;;;;;;;1395.47;999.90;;;34.40;99.90;;;;;;5033757;28;20029;-61
2023/12/08 09:23:44;;;;;;;1398.45;999.90;;;34.40;99.90;;;;;;5033414;28;20072;-62
2023/12/08 09:26:10;;;;;;;1394.13;999.90;;;34.50;99.90;;;;;;5033818;28;20022;-60
2023/12/08 09:28:37;;;;;;;1391.53;999.90;;;34.40;99.90;;;;;;5031382;28;20022;-62
2023/12/08 09:31:03;;;;;;;1394.00;999.90;;;34.40;99.90;;;;;;5023522;28;20062;-63
2023/12/08 09:33:30;;;;;;;1398.72;999.90;;;34.40;99.90;;;;;;5031592;28;20025;-63
2023/12/08 09:35:58;;;;;;;1408.85;999.90;;;34.30;99.90;;;;;;5034236;28;20041;-64
2023/12/08 09:38:24;;;;;;;1420.20;999.90;;;34.20;99.90;;;;;;5033920;28;20170;-63
2023/12/08 09:40:51;;;;;;;1428.63;999.90;;;34.20;99.90;;;;;;5034400;28;20056;-64
2023/12/08 09:43:26;;;;;;;1403.93;999.90;;;34.10;99.90;;;;;;5034272;28;20053;-62
2023/12/08 09:45:55;;;;;;;1406.85;999.90;;;34.00;99.90;;;;;;5033801;28;20066;-64
2023/12/08 09:48:26;;;;;;;1403.82;999.90;;;34.00;99.90;;;;;;5034232;28;20017;-66
2023/12/08 09:50:55;;;;;;;1405.20;999.90;;;34.00;99.90;;;;;;5033752;28;20025;-63
2023/12/08 09:53:22;;;;;;;1409.32;999.90;;;33.90;99.90;;;;;;5034076;28;20053;-62
2023/12/08 09:55:49;;;;;;;1427.05;999.90;;;33.80;99.90;;;;;;5033995;28;20026;-63
2023/12/08 09:58:17;;;;;;;1406.97;999.90;;;33.80;99.90;;;;;;5033649;28;20045;-62
2023/12/08 10:00:44;;;;;;;1421.93;999.90;;;33.80;99.90;;;;;;5033475;28;20400;-63
2023/12/08 10:03:10;;;;;;;1398.85;999.90;;;33.80;99.90;;;;;;5033448;28;20027;-63
2023/12/08 10:05:37;;;;;;;1421.13;999.90;;;33.70;99.90;;;;;;5033761;28;20061;-63
2023/12/08 10:08:08;;;;;;;1412.72;999.90;;;33.70;99.90;;;;;;5033514;28;20037;-61
2023/12/08 10:10:37;;;;;;;1405.78;999.90;;;33.70;99.90;;;;;;5033350;28;20039;-64
2023/12/08 10:13:04;;;;;;;1412.97;999.90;;;33.70;99.90;;;;;;5033474;28;20423;-62
2023/12/08 10:15:31;;;;;;;1416.55;999.90;;;33.60;99.90;;;;;;5036117;28;20063;-62
2023/12/08 10:17:57;;;;;;;1416.40;999.90;;;33.60;99.90;;;;;;5037395;28;20026;-62
2023/12/08 10:20:24;;;;;;;1420.80;999.90;;;33.60;99.90;;;;;;5037651;28;20025;-63
2023/12/08 10:22:55;;;;;;;1401.10;999.90;;;33.60;99.90;;;;;;5029822;28;20026;-62
2023/12/08 10:25:23;;;;;;;1407.78;999.90;;;33.60;99.90;;;;;;5028046;28;20064;-62
2023/12/08 10:27:56;;;;;;;1422.30;999.90;;;33.50;99.90;;;;;;5044627;28;20021;-65
2023/12/08 10:30:25;;;;;;;1406.22;999.90;;;33.40;99.90;;;;;;5042515;28;20468;-64
2023/12/08 10:32:52;;;;;;;1422.13;999.90;;;33.40;99.90;;;;;;5042896;28;20030;-64
2023/12/08 10:35:19;;;;;;;1405.88;999.90;;;33.40;99.90;;;;;;5044838;28;20037;-63
2023/12/08 10:37:46;;;;;;;1421.80;999.90;;;33.30;99.90;;;;;;5044892;28;20021;-64
2023/12/08 10:40:15;;;;;;;1423.85;999.90;;;33.30;99.90;;;;;;5045699;28;20029;-64
2023/12/08 10:42:45;;;;;;;1411.85;999.90;;;33.30;99.90;;;;;;5047070;28;20415;-65
2023/12/08 10:45:13;;;;;;;1408.15;999.90;;;33.30;99.90;;;;;;5043143;28;20499;-64
2023/12/08 10:47:43;;;;;;;1425.32;999.90;;;33.20;99.90;;;;;;5046355;28;20388;-64
2023/12/08 10:50:12;;;;;;;1421.43;999.90;;;33.20;99.90;;;;;;5040222;28;20029;-62
2023/12/08 10:52:39;;;;;;;1420.18;999.90;;;33.20;99.90;;;;;;5041743;28;20030;-63
2023/12/08 10:55:07;;;;;;;1415.05;999.90;;;33.20;99.90;;;;;;5036143;28;20476;-64
2023/12/08 10:57:37;;;;;;;1399.97;999.90;;;33.20;99.90;;;;;;5047461;28;20021;-64
2023/12/08 11:00:31;;;;;;;1410.47;999.90;;;33.20;99.90;;;;;;5046084;28;20028;-62
2023/12/08 11:02:55;;;;;;;1418.85;999.90;;;33.20;99.90;;;;;;5038989;28;20129;-62
2023/12/08 11:05:30;;;;;;;1420.10;999.90;;;33.10;99.90;;;;;;5039039;28;20117;-61
2023/12/08 11:07:59;;;;;;;1408.97;999.90;;;33.00;99.90;;;;;;5042299;28;20411;-62
2023/12/08 11:10:29;;;;;;;1416.35;999.90;;;33.00;99.90;;;;;;5044249;28;20082;-63
2023/12/08 11:13:18;;;;;;;1422.72;999.90;;;32.90;99.90;;;;;;5036531;28;20029;-63
2023/12/08 11:16:07;;;;;;;1412.63;999.90;;;32.90;99.90;;;;;;5042378;28;20028;-62
2023/12/08 11:18:36;;;;;;;1414.07;999.90;;;32.80;99.90;;;;;;4981433;28;20500;-63
2023/12/08 11:21:08;;;;;;;1414.55;999.90;;;32.80;99.90;;;;;;4972097;28;20133;-63
2023/12/08 11:23:35;;;;;;;;;;;32.80;99.90;;;;;;4980042;28;20111;-62
2023/12/08 11:26:19;;;;;;;1413.47;999.90;;;32.80;99.90;;;;;;4978540;28;19910;-63
2023/12/08 11:29:14;;;;;;;1421.18;999.90;;;32.70;99.90;;;;;;4970926;28;20477;-63
2023/12/08 11:31:55;;;;;;;1414.10;999.90;;;32.70;99.90;;;;;;4975376;28;20038;-61
2023/12/08 11:34:52;;;;;;;1403.47;999.90;;;32.70;99.90;;;;;;4975465;28;20516;-62
2023/12/08 11:37:20;;;;;;;1423.30;999.90;;;32.70;99.90;;;;;;4968264;28;20038;-63
2023/12/08 11:39:47;;;;;;;1414.53;999.90;;;32.70;99.90;;;;;;4973322;28;20086;-62
2023/12/08 11:42:17;;;;;;;1413.72;999.90;;;32.70;99.90;;;;;;4970052;28;20046;-63
2023/12/08 11:44:46;;;;;;;1411.55;999.90;;;32.60;99.90;;;;;;4967586;28;20490;-63
2023/12/08 11:47:15;;;;;;;1418.72;999.90;;;32.60;99.90;;;;;;4965126;28;20198;-62
2023/12/08 11:49:44;;;;;;;1393.95;999.90;;;32.60;99.90;;;;;;5007882;28;20033;-63
2023/12/08 11:52:17;;;;;;;1411.00;999.90;;;32.60;99.90;;;;;;5036877;28;20032;-61
2023/12/08 11:55:16;;;;;;;1415.88;999.90;;;32.50;99.90;;;;;;5037638;28;20427;-63
2023/12/08 11:57:52;;;;;;;1393.03;999.90;;;32.40;99.90;;;;;;5051243;23;20054;-61
2023/12/08 12:00:21;;;;;;;1420.60;999.90;;;32.40;99.90;;;;;;5016315;28;20053;-63
2023/12/08 12:02:49;;;;;;;1414.95;999.90;;;32.40;99.90;;;;;;5015613;28;20040;-62
2023/12/08 12:05:17;;;;;;;1400.57;999.90;;;32.40;99.90;;;;;;5014531;28;20105;-62
2023/12/08 12:07:46;;;;;;;1397.28;999.90;;;32.40;99.90;;;;;;5014212;28;20026;-61